IGO773F VOVZ-VOHS
Flight info
| Callsign | IGO773F |
|---|---|
| Flight time | 0h 42m |
| Altitude | 36000 |
| Route | VVZ W29 ANBAS RISOT6 |
| Aircraft | A20N/M-SDE2E3FGHIRWXY/LB1 |
Departure
| Time | 2026-04-21 07:48 |
|---|---|
| Airport | Visakhapatnam International Airport (VOVZ) |
Arrival
| Time | 2026-04-21 08:31 |
|---|---|
| Airport | Rajiv Gandhi International Airport (VOHS) |
| Time | Latitude | Longitude | Altitude | Speed | Heading |
|---|---|---|---|---|---|
| 2026-04-21 07:10 | 17.72708 | 83.22360 | 34 ft | 0 kts | 5° |
| 2026-04-21 07:38 | 17.72702 | 83.22360 | 34 ft | 2 kts | 5° |
| 2026-04-21 07:38 | 17.72687 | 83.22358 | 34 ft | 2 kts | 5° |
| 2026-04-21 07:38 | 17.72672 | 83.22356 | 34 ft | 2 kts | 5° |
| 2026-04-21 07:38 | 17.72657 | 83.22355 | 34 ft | 2 kts | 5° |
| 2026-04-21 07:39 | 17.72642 | 83.22354 | 34 ft | 2 kts | 5° |
| 2026-04-21 07:39 | 17.72628 | 83.22348 | 34 ft | 2 kts | 42° |
| 2026-04-21 07:39 | 17.72618 | 83.22336 | 34 ft | 2 kts | 54° |
| 2026-04-21 07:39 | 17.72614 | 83.22321 | 34 ft | 2 kts | 101° |
| 2026-04-21 07:40 | 17.72616 | 83.22308 | 34 ft | 1 kts | 95° |
| 2026-04-21 07:40 | 17.72616 | 83.22307 | 34 ft | 0 kts | 94° |
| 2026-04-21 07:43 | 17.72615 | 83.22319 | 34 ft | 4 kts | 95° |
| 2026-04-21 07:43 | 17.72610 | 83.22382 | 33 ft | 12 kts | 95° |
| 2026-04-21 07:43 | 17.72596 | 83.22454 | 31 ft | 9 kts | 131° |
| 2026-04-21 07:44 | 17.72521 | 83.22466 | 30 ft | 13 kts | 183° |
| 2026-04-21 07:44 | 17.72421 | 83.22460 | 29 ft | 11 kts | 182° |
| 2026-04-21 07:44 | 17.72378 | 83.22537 | 27 ft | 18 kts | 93° |
| 2026-04-21 07:44 | 17.72366 | 83.22706 | 24 ft | 28 kts | 94° |
| 2026-04-21 07:45 | 17.72346 | 83.22946 | 20 ft | 36 kts | 96° |
| 2026-04-21 07:45 | 17.72322 | 83.23232 | 21 ft | 42 kts | 96° |
| 2026-04-21 07:45 | 17.72296 | 83.23556 | 27 ft | 45 kts | 96° |
| 2026-04-21 07:45 | 17.72272 | 83.23890 | 34 ft | 45 kts | 94° |
| 2026-04-21 07:46 | 17.72240 | 83.24216 | 41 ft | 39 kts | 96° |
| 2026-04-21 07:46 | 17.72219 | 83.24480 | 32 ft | 27 kts | 95° |
| 2026-04-21 07:46 | 17.72179 | 83.24592 | 26 ft | 16 kts | 142° |
| 2026-04-21 07:46 | 17.72127 | 83.24683 | 22 ft | 11 kts | 82° |
| 2026-04-21 07:47 | 17.72175 | 83.24729 | 21 ft | 9 kts | 2° |
| 2026-04-21 07:47 | 17.72206 | 83.24698 | 23 ft | 2 kts | 272° |
| 2026-04-21 07:47 | 17.72210 | 83.24618 | 26 ft | 36 kts | 273° |
| 2026-04-21 07:47 | 17.72250 | 83.24110 | 39 ft | 101 kts | 274° |
| 2026-04-21 07:48 | 17.72330 | 83.23161 | 21 ft | 157 kts | 274° |
| 2026-04-21 07:48 | 17.72456 | 83.21882 | 238 ft | 183 kts | 273° |
| 2026-04-21 07:48 | 17.72609 | 83.20590 | 1000 ft | 172 kts | 272° |
| 2026-04-21 07:48 | 17.72719 | 83.19355 | 1628 ft | 170 kts | 270° |
| 2026-04-21 07:49 | 17.72849 | 83.18079 | 2046 ft | 179 kts | 274° |
| 2026-04-21 07:49 | 17.73046 | 83.16717 | 2322 ft | 193 kts | 275° |
| 2026-04-21 07:49 | 17.73265 | 83.15256 | 2610 ft | 207 kts | 275° |
| 2026-04-21 07:49 | 17.73489 | 83.13702 | 2934 ft | 220 kts | 273° |
| 2026-04-21 07:50 | 17.73398 | 83.12019 | 3129 ft | 238 kts | 255° |
| 2026-04-21 07:50 | 17.72970 | 83.10250 | 3501 ft | 254 kts | 251° |
| 2026-04-21 07:50 | 17.72478 | 83.08373 | 3872 ft | 271 kts | 252° |
| 2026-04-21 07:50 | 17.71998 | 83.06440 | 4481 ft | 278 kts | 253° |
| 2026-04-21 07:51 | 17.71524 | 83.04432 | 5217 ft | 281 kts | 253° |
| 2026-04-21 07:51 | 17.71062 | 83.02412 | 5936 ft | 284 kts | 254° |
| 2026-04-21 07:51 | 17.70605 | 83.00372 | 6656 ft | 288 kts | 255° |
| 2026-04-21 07:51 | 17.70148 | 82.98310 | 7382 ft | 292 kts | 255° |
| 2026-04-21 07:52 | 17.69681 | 82.96192 | 8122 ft | 296 kts | 255° |
| 2026-04-21 07:52 | 17.69216 | 82.94076 | 8841 ft | 300 kts | 255° |
| 2026-04-21 07:52 | 17.68738 | 82.91897 | 9562 ft | 304 kts | 255° |
| 2026-04-21 07:52 | 17.68259 | 82.89710 | 10242 ft | 309 kts | 256° |
| 2026-04-21 07:53 | 17.67763 | 82.87450 | 10620 ft | 325 kts | 256° |
| 2026-04-21 07:53 | 17.67235 | 82.85045 | 10931 ft | 343 kts | 256° |
| 2026-04-21 07:53 | 17.66685 | 82.82536 | 11227 ft | 359 kts | 256° |
| 2026-04-21 07:53 | 17.66107 | 82.79901 | 11509 ft | 375 kts | 256° |
| 2026-04-21 07:54 | 17.65504 | 82.77156 | 11779 ft | 390 kts | 256° |
| 2026-04-21 07:54 | 17.64876 | 82.74295 | 12032 ft | 405 kts | 256° |
| 2026-04-21 07:54 | 17.64227 | 82.71336 | 12271 ft | 418 kts | 257° |
| 2026-04-21 07:54 | 17.63555 | 82.68282 | 12561 ft | 428 kts | 257° |
| 2026-04-21 07:55 | 17.62881 | 82.65218 | 13068 ft | 432 kts | 257° |
| 2026-04-21 07:55 | 17.62196 | 82.62112 | 13633 ft | 434 kts | 257° |
| 2026-04-21 07:55 | 17.61512 | 82.59010 | 14156 ft | 437 kts | 257° |
| 2026-04-21 07:55 | 17.60814 | 82.55846 | 14679 ft | 440 kts | 257° |
| 2026-04-21 07:56 | 17.60123 | 82.52717 | 15186 ft | 443 kts | 257° |
| 2026-04-21 07:56 | 17.59420 | 82.49532 | 15683 ft | 446 kts | 257° |
| 2026-04-21 07:56 | 17.58709 | 82.46314 | 16173 ft | 449 kts | 257° |
| 2026-04-21 07:56 | 17.57997 | 82.43097 | 16646 ft | 452 kts | 257° |
| 2026-04-21 07:57 | 17.57275 | 82.39838 | 17111 ft | 455 kts | 257° |
| 2026-04-21 07:57 | 17.56557 | 82.36597 | 17561 ft | 457 kts | 257° |
| 2026-04-21 07:57 | 17.55829 | 82.33311 | 18003 ft | 460 kts | 257° |
| 2026-04-21 07:57 | 17.55097 | 82.30013 | 18431 ft | 462 kts | 257° |
| 2026-04-21 07:58 | 17.54361 | 82.26702 | 18853 ft | 465 kts | 257° |
| 2026-04-21 07:58 | 17.53624 | 82.23386 | 19271 ft | 467 kts | 257° |
| 2026-04-21 07:58 | 17.52891 | 82.20036 | 19689 ft | 469 kts | 258° |
| 2026-04-21 07:58 | 17.52277 | 82.16603 | 20098 ft | 472 kts | 261° |
| 2026-04-21 07:59 | 17.51799 | 82.13168 | 20501 ft | 474 kts | 262° |
| 2026-04-21 07:59 | 17.51343 | 82.09718 | 20902 ft | 476 kts | 262° |
| 2026-04-21 07:59 | 17.50891 | 82.06267 | 21291 ft | 478 kts | 263° |
| 2026-04-21 07:59 | 17.50427 | 82.02734 | 21679 ft | 481 kts | 262° |
| 2026-04-21 08:00 | 17.49964 | 81.99238 | 22055 ft | 483 kts | 262° |
| 2026-04-21 08:00 | 17.49493 | 81.95701 | 22421 ft | 485 kts | 262° |
| 2026-04-21 08:00 | 17.49024 | 81.92189 | 22766 ft | 487 kts | 262° |
| 2026-04-21 08:00 | 17.48547 | 81.88627 | 23101 ft | 489 kts | 262° |
| 2026-04-21 08:01 | 17.48068 | 81.85062 | 23456 ft | 490 kts | 262° |
| 2026-04-21 08:01 | 17.47587 | 81.81491 | 23934 ft | 488 kts | 262° |
| 2026-04-21 08:01 | 17.47113 | 81.77978 | 24433 ft | 486 kts | 262° |
| 2026-04-21 08:02 | 17.46160 | 81.70918 | 25388 ft | 482 kts | 262° |
| 2026-04-21 08:02 | 17.45683 | 81.67398 | 25850 ft | 481 kts | 262° |
| 2026-04-21 08:02 | 17.45215 | 81.63949 | 26293 ft | 480 kts | 263° |
| 2026-04-21 08:02 | 17.44736 | 81.60421 | 26740 ft | 478 kts | 262° |
| 2026-04-21 08:03 | 17.44262 | 81.56935 | 27180 ft | 477 kts | 263° |
| 2026-04-21 08:03 | 17.43795 | 81.53501 | 27604 ft | 476 kts | 263° |
| 2026-04-21 08:03 | 17.43325 | 81.50052 | 28029 ft | 474 kts | 263° |
| 2026-04-21 08:03 | 17.42850 | 81.46573 | 28455 ft | 473 kts | 262° |
| 2026-04-21 08:04 | 17.42383 | 81.43154 | 28870 ft | 472 kts | 262° |
| 2026-04-21 08:04 | 17.41911 | 81.39700 | 29285 ft | 470 kts | 263° |
| 2026-04-21 08:04 | 17.41444 | 81.36296 | 29688 ft | 469 kts | 262° |
| 2026-04-21 08:04 | 17.40980 | 81.32909 | 30087 ft | 468 kts | 262° |
| 2026-04-21 08:05 | 17.40510 | 81.29490 | 30485 ft | 466 kts | 262° |
| 2026-04-21 08:05 | 17.40049 | 81.26140 | 30867 ft | 465 kts | 262° |
| 2026-04-21 08:05 | 17.39588 | 81.22791 | 31240 ft | 464 kts | 262° |
| 2026-04-21 08:05 | 17.39117 | 81.19378 | 31610 ft | 463 kts | 262° |
| 2026-04-21 08:06 | 17.38657 | 81.16048 | 31953 ft | 462 kts | 262° |
| 2026-04-21 08:06 | 17.38192 | 81.12678 | 32298 ft | 461 kts | 262° |
| 2026-04-21 08:06 | 17.37732 | 81.09359 | 32629 ft | 459 kts | 262° |
| 2026-04-21 08:06 | 17.37271 | 81.06029 | 32940 ft | 459 kts | 262° |
| 2026-04-21 08:07 | 17.36812 | 81.02713 | 33234 ft | 458 kts | 262° |
| 2026-04-21 08:07 | 17.36350 | 80.99390 | 33522 ft | 457 kts | 262° |
| 2026-04-21 08:07 | 17.35888 | 80.96067 | 33804 ft | 457 kts | 262° |
| 2026-04-21 08:07 | 17.35428 | 80.92763 | 34080 ft | 456 kts | 262° |
| 2026-04-21 08:08 | 17.34971 | 80.89482 | 34317 ft | 456 kts | 262° |
| 2026-04-21 08:08 | 17.34507 | 80.86164 | 34523 ft | 456 kts | 262° |
| 2026-04-21 08:08 | 17.34046 | 80.82870 | 34707 ft | 457 kts | 262° |
| 2026-04-21 08:08 | 17.33578 | 80.79530 | 34887 ft | 457 kts | 262° |
| 2026-04-21 08:09 | 17.33113 | 80.76216 | 35056 ft | 458 kts | 262° |
| 2026-04-21 08:09 | 17.32650 | 80.72912 | 35217 ft | 458 kts | 262° |
| 2026-04-21 08:09 | 17.32183 | 80.69585 | 35377 ft | 459 kts | 262° |
| 2026-04-21 08:09 | 17.31713 | 80.66243 | 35529 ft | 459 kts | 262° |
| 2026-04-21 08:10 | 17.31242 | 80.62904 | 35680 ft | 459 kts | 262° |
| 2026-04-21 08:10 | 17.30776 | 80.59598 | 35809 ft | 460 kts | 262° |
| 2026-04-21 08:10 | 17.30304 | 80.56251 | 35813 ft | 461 kts | 262° |
| 2026-04-21 08:11 | 17.29358 | 80.49569 | 35813 ft | 461 kts | 262° |
| 2026-04-21 08:11 | 17.28409 | 80.42875 | 35810 ft | 461 kts | 262° |
| 2026-04-21 08:12 | 17.27457 | 80.36180 | 35548 ft | 461 kts | 262° |
| 2026-04-21 08:12 | 17.26987 | 80.32886 | 35299 ft | 459 kts | 261° |
| 2026-04-21 08:12 | 17.26532 | 80.29700 | 35055 ft | 457 kts | 261° |
| 2026-04-21 08:12 | 17.26061 | 80.26408 | 34803 ft | 455 kts | 261° |
| 2026-04-21 08:13 | 17.25590 | 80.23116 | 34549 ft | 453 kts | 261° |
| 2026-04-21 08:13 | 17.25117 | 80.19817 | 34296 ft | 454 kts | 261° |
| 2026-04-21 08:13 | 17.24676 | 80.16505 | 34042 ft | 454 kts | 263° |
| 2026-04-21 08:13 | 17.24384 | 80.13180 | 33763 ft | 455 kts | 266° |
| 2026-04-21 08:14 | 17.24259 | 80.09860 | 33278 ft | 457 kts | 269° |
| 2026-04-21 08:14 | 17.24233 | 80.06512 | 32611 ft | 458 kts | 270° |
| 2026-04-21 08:14 | 17.24220 | 80.03136 | 31848 ft | 460 kts | 270° |
| 2026-04-21 08:14 | 17.24209 | 79.99766 | 31034 ft | 462 kts | 270° |
| 2026-04-21 08:15 | 17.24195 | 79.96372 | 30180 ft | 465 kts | 270° |
| 2026-04-21 08:15 | 17.24180 | 79.92969 | 29302 ft | 468 kts | 270° |
| 2026-04-21 08:15 | 17.24162 | 79.89521 | 28387 ft | 471 kts | 270° |
| 2026-04-21 08:15 | 17.24143 | 79.86084 | 27445 ft | 474 kts | 270° |
| 2026-04-21 08:16 | 17.24123 | 79.82616 | 26475 ft | 477 kts | 270° |
| 2026-04-21 08:16 | 17.24102 | 79.79096 | 25458 ft | 480 kts | 270° |
| 2026-04-21 08:16 | 17.24080 | 79.75549 | 24404 ft | 484 kts | 270° |
| 2026-04-21 08:16 | 17.24057 | 79.72004 | 23319 ft | 487 kts | 270° |
| 2026-04-21 08:17 | 17.24034 | 79.68426 | 22377 ft | 486 kts | 270° |
| 2026-04-21 08:17 | 17.24010 | 79.64884 | 21617 ft | 481 kts | 270° |
| 2026-04-21 08:17 | 17.23985 | 79.61392 | 20877 ft | 476 kts | 270° |
| 2026-04-21 08:17 | 17.23961 | 79.57938 | 20093 ft | 472 kts | 270° |
| 2026-04-21 08:18 | 17.23935 | 79.54490 | 19362 ft | 467 kts | 270° |
| 2026-04-21 08:18 | 17.23910 | 79.51090 | 18667 ft | 462 kts | 270° |
| 2026-04-21 08:18 | 17.23884 | 79.47704 | 17981 ft | 457 kts | 269° |
| 2026-04-21 08:18 | 17.23857 | 79.44362 | 17301 ft | 452 kts | 269° |
| 2026-04-21 08:19 | 17.23831 | 79.41076 | 16626 ft | 447 kts | 269° |
| 2026-04-21 08:19 | 17.23804 | 79.37812 | 15956 ft | 443 kts | 269° |
| 2026-04-21 08:19 | 17.23777 | 79.34568 | 15286 ft | 438 kts | 269° |
| 2026-04-21 08:19 | 17.23749 | 79.31395 | 14626 ft | 434 kts | 269° |
| 2026-04-21 08:20 | 17.23721 | 79.28224 | 13960 ft | 430 kts | 269° |
| 2026-04-21 08:20 | 17.23692 | 79.25060 | 13292 ft | 427 kts | 269° |
| 2026-04-21 08:20 | 17.23664 | 79.21948 | 12630 ft | 423 kts | 269° |
| 2026-04-21 08:20 | 17.23635 | 79.18864 | 12154 ft | 414 kts | 269° |
| 2026-04-21 08:21 | 17.23604 | 79.15873 | 11744 ft | 403 kts | 269° |
| 2026-04-21 08:21 | 17.23572 | 79.12942 | 11401 ft | 392 kts | 269° |
| 2026-04-21 08:21 | 17.23544 | 79.10100 | 11168 ft | 378 kts | 270° |
| 2026-04-21 08:21 | 17.23519 | 79.07385 | 10982 ft | 364 kts | 270° |
| 2026-04-21 08:22 | 17.23494 | 79.04727 | 10788 ft | 351 kts | 270° |
| 2026-04-21 08:22 | 17.23470 | 79.02208 | 10615 ft | 339 kts | 270° |
| 2026-04-21 08:22 | 17.23446 | 78.99764 | 10451 ft | 327 kts | 270° |
| 2026-04-21 08:22 | 17.23422 | 78.97414 | 10296 ft | 315 kts | 270° |
| 2026-04-21 08:23 | 17.23399 | 78.95146 | 10156 ft | 303 kts | 270° |
| 2026-04-21 08:23 | 17.23376 | 78.92959 | 10026 ft | 292 kts | 270° |
| 2026-04-21 08:23 | 17.23359 | 78.90848 | 9873 ft | 286 kts | 270° |
| 2026-04-21 08:23 | 17.23346 | 78.88752 | 9480 ft | 287 kts | 270° |
| 2026-04-21 08:24 | 17.23332 | 78.86625 | 9112 ft | 286 kts | 270° |
| 2026-04-21 08:24 | 17.23318 | 78.84556 | 8767 ft | 285 kts | 270° |
| 2026-04-21 08:24 | 17.23304 | 78.82471 | 8424 ft | 283 kts | 270° |
| 2026-04-21 08:24 | 17.23289 | 78.80415 | 8097 ft | 281 kts | 270° |
| 2026-04-21 08:25 | 17.23273 | 78.78374 | 7857 ft | 274 kts | 270° |
| 2026-04-21 08:25 | 17.23258 | 78.76396 | 7586 ft | 269 kts | 270° |
| 2026-04-21 08:25 | 17.23243 | 78.74426 | 7298 ft | 265 kts | 270° |
| 2026-04-21 08:25 | 17.23228 | 78.72495 | 6975 ft | 263 kts | 270° |
| 2026-04-21 08:26 | 17.23212 | 78.70581 | 6663 ft | 260 kts | 270° |
| 2026-04-21 08:26 | 17.23200 | 78.68671 | 6339 ft | 259 kts | 271° |
| 2026-04-21 08:26 | 17.23205 | 78.66776 | 5999 ft | 258 kts | 271° |
| 2026-04-21 08:26 | 17.23200 | 78.64905 | 5644 ft | 256 kts | 270° |
| 2026-04-21 08:27 | 17.23180 | 78.63056 | 5266 ft | 248 kts | 270° |
| 2026-04-21 08:27 | 17.23152 | 78.61222 | 4881 ft | 251 kts | 270° |
| 2026-04-21 08:27 | 17.23121 | 78.59371 | 4503 ft | 252 kts | 270° |
| 2026-04-21 08:27 | 17.23092 | 78.57552 | 4159 ft | 247 kts | 270° |
| 2026-04-21 08:28 | 17.23064 | 78.55769 | 3763 ft | 237 kts | 270° |
| 2026-04-21 08:28 | 17.23039 | 78.54082 | 3564 ft | 219 kts | 270° |
| 2026-04-21 08:28 | 17.23016 | 78.52557 | 3451 ft | 195 kts | 270° |
| 2026-04-21 08:28 | 17.22996 | 78.51191 | 3203 ft | 175 kts | 270° |
| 2026-04-21 08:29 | 17.22979 | 78.49965 | 2947 ft | 161 kts | 270° |
| 2026-04-21 08:29 | 17.22963 | 78.48831 | 2704 ft | 146 kts | 270° |
| 2026-04-21 08:29 | 17.22948 | 78.47781 | 2522 ft | 142 kts | 270° |
| 2026-04-21 08:29 | 17.22937 | 78.46735 | 2343 ft | 142 kts | 271° |
| 2026-04-21 08:30 | 17.22928 | 78.45699 | 2163 ft | 142 kts | 269° |
| 2026-04-21 08:30 | 17.22902 | 78.44672 | 2045 ft | 130 kts | 269° |
| 2026-04-21 08:30 | 17.22893 | 78.43885 | 2037 ft | 83 kts | 270° |
| 2026-04-21 08:30 | 17.22887 | 78.43401 | 2020 ft | 61 kts | 270° |
| 2026-04-21 08:31 | 17.22919 | 78.43026 | 2009 ft | 47 kts | 292° |
| 2026-04-21 08:31 | 17.23041 | 78.42802 | 1999 ft | 18 kts | 299° |
| 2026-04-21 08:31 | 17.23144 | 78.42728 | 1997 ft | 19 kts | 359° |
| 2026-04-21 08:31 | 17.23261 | 78.42729 | 1999 ft | 9 kts | 358° |
| 2026-04-21 08:32 | 17.23318 | 78.42748 | 2000 ft | 8 kts | 55° |
| 2026-04-21 08:32 | 17.23326 | 78.42801 | 2002 ft | 5 kts | 91° |
| 2026-04-21 08:32 | 17.23326 | 78.42846 | 2004 ft | 6 kts | 89° |
| 2026-04-21 08:32 | 17.23327 | 78.42906 | 2006 ft | 10 kts | 89° |
| 2026-04-21 08:33 | 17.23328 | 78.42973 | 2009 ft | 4 kts | 89° |
| 2026-04-21 08:33 | 17.23343 | 78.42993 | 2009 ft | 3 kts | 18° |
| 2026-04-21 08:33 | 17.23375 | 78.42993 | 2009 ft | 4 kts | 359° |
| 2026-04-21 08:33 | 17.23407 | 78.42992 | 2008 ft | 5 kts | 359° |
| 2026-04-21 08:34 | 17.23421 | 78.42992 | 2008 ft | 0 kts | 1° |
| 2026-04-21 08:34 | 17.23422 | 78.42992 | 2008 ft | 0 kts | 1° |